createdAt,value
2019-04-26T00:00:50.770Z,94898.09
2019-04-26T00:03:21.158Z,94893.13
2019-04-26T00:05:50.353Z,94898.33
2019-04-26T00:08:19.042Z,94900.70
2019-04-26T00:10:52.418Z,94892.23
2019-04-26T00:13:41.134Z,94892.34
2019-04-26T00:16:12.583Z,94892.09
2019-04-26T00:18:41.441Z,94895.80
2019-04-26T00:21:10.645Z,94885.86
2019-04-26T00:23:40.414Z,94884.75
2019-04-26T00:26:09.313Z,94879.78
2019-04-26T00:28:38.015Z,94885.98
2019-04-26T00:31:06.727Z,94855.53
2019-04-26T00:33:35.434Z,94880.02
2019-04-26T00:36:04.107Z,94880.15
2019-04-26T00:38:32.778Z,94875.92
2019-04-26T00:41:01.754Z,94877.02
2019-04-26T00:43:30.728Z,94873.66
2019-04-26T00:46:01.757Z,94883.59
2019-04-26T00:48:32.091Z,94881.20
2019-04-26T00:51:03.819Z,94875.06
2019-04-26T00:53:35.145Z,94876.88
2019-04-26T00:56:06.558Z,94867.91
2019-04-26T00:58:36.242Z,94868.45
2019-04-26T01:01:05.515Z,94871.42
2019-04-26T01:03:34.483Z,94868.69
2019-04-26T01:06:04.783Z,94872.79
2019-04-26T01:08:33.465Z,94870.31
2019-04-26T01:11:02.140Z,94867.05
2019-04-26T01:13:30.844Z,94862.90
2019-04-26T01:15:59.553Z,94871.53
2019-04-26T01:18:28.236Z,94867.57
2019-04-26T01:20:59.853Z,94869.23
2019-04-26T01:23:30.596Z,94873.50
2019-04-26T01:26:10.887Z,94868.40
2019-04-26T01:28:42.506Z,94867.84
2019-04-26T01:31:12.230Z,94863.84
2019-04-26T01:33:42.579Z,94861.45
2019-04-26T01:36:13.185Z,94859.95
2019-04-26T01:38:43.818Z,94861.55
2019-04-26T01:41:17.114Z,94864.27
2019-04-26T01:43:48.992Z,94858.88
2019-04-26T01:46:23.150Z,94860.10
2019-04-26T01:49:04.106Z,94856.52
2019-04-26T01:51:41.649Z,94853.48
2019-04-26T01:54:13.487Z,94852.08
2019-04-26T01:56:42.413Z,94845.72
2019-04-26T01:59:14.241Z,94840.13
2019-04-26T02:02:00.621Z,94840.21
2019-04-26T02:04:31.967Z,94846.52
2019-04-26T02:07:02.039Z,94848.44
2019-04-26T02:09:31.012Z,94845.06
2019-04-26T02:12:00.695Z,94851.01
2019-04-26T02:14:29.571Z,94842.77
2019-04-26T02:16:59.647Z,94842.52
2019-04-26T02:19:29.473Z,94845.30
2019-04-26T02:22:00.054Z,94852.02
2019-04-26T02:24:30.937Z,94849.59
2019-04-26T02:27:01.703Z,94841.84
2019-04-26T02:29:30.460Z,94845.12
2019-04-26T02:32:02.490Z,94848.23
2019-04-26T02:34:36.053Z,94847.44
2019-04-26T02:37:07.942Z,94845.71
2019-04-26T02:39:39.324Z,94838.05
2019-04-26T02:42:10.901Z,94835.65
2019-04-26T02:44:44.092Z,94826.98
2019-04-26T02:47:30.481Z,94838.59
2019-04-26T02:50:03.930Z,94834.70
2019-04-26T02:52:44.678Z,94835.27
2019-04-26T02:55:16.270Z,94829.77
2019-04-26T02:57:51.085Z,94832.11
2019-04-26T03:00:21.021Z,94808.11
2019-04-26T03:02:55.172Z,94833.97
2019-04-26T03:05:25.079Z,94831.89
2019-04-26T03:07:59.521Z,94834.50
2019-04-26T03:10:33.814Z,94834.06
2019-04-26T03:13:05.117Z,94840.11
2019-04-26T03:15:44.241Z,94843.52
2019-04-26T03:18:35.515Z,94838.59
2019-04-26T03:21:25.110Z,94836.27
2019-04-26T03:24:11.855Z,94847.42
2019-04-26T03:26:46.505Z,94842.94
2019-04-26T03:29:26.760Z,94850.98
2019-04-26T03:32:07.432Z,94854.02
2019-04-26T03:34:58.473Z,94859.16
2019-04-26T03:37:44.476Z,94859.47
2019-04-26T03:40:17.836Z,94855.52
2019-04-26T03:42:51.880Z,94861.42
2019-04-26T03:45:44.651Z,94857.27
2019-04-26T03:48:28.549Z,94857.58
2019-04-26T03:51:22.988Z,94873.06
2019-04-26T03:54:00.273Z,94872.19
2019-04-26T03:56:35.914Z,94874.24
2019-04-26T03:59:08.359Z,94868.05
2019-04-26T04:01:46.038Z,94874.86
2019-04-26T04:04:37.096Z,94871.02
2019-04-26T04:07:07.743Z,94876.36
2019-04-26T04:09:41.447Z,94874.95
2019-04-26T04:12:31.474Z,94872.74
2019-04-26T04:15:15.150Z,94877.33
2019-04-26T04:17:50.190Z,94881.61
2019-04-26T04:20:48.192Z,94884.77
2019-04-26T04:23:34.760Z,94889.02
2019-04-26T04:26:06.419Z,94886.73
2019-04-26T04:28:54.312Z,94884.18
2019-04-26T04:31:31.997Z,94882.64
2019-04-26T04:34:03.595Z,94879.14
2019-04-26T04:36:35.258Z,94891.12
2019-04-26T04:39:13.265Z,94897.62
2019-04-26T04:41:47.009Z,94893.86
2019-04-26T04:44:34.955Z,94896.64
2019-04-26T04:47:23.537Z,94903.11
2019-04-26T04:50:00.638Z,94893.16
2019-04-26T04:52:48.210Z,94887.95
2019-04-26T04:55:36.047Z,94888.48
2019-04-26T04:58:22.765Z,94896.58
2019-04-26T05:01:24.387Z,94892.97
2019-04-26T05:03:59.559Z,94896.85
2019-04-26T05:06:49.079Z,94893.74
2019-04-26T05:09:23.587Z,94892.12
2019-04-26T05:11:55.199Z,94896.31
2019-04-26T05:14:46.167Z,94889.32
2019-04-26T05:17:43.191Z,94894.52
2019-04-26T05:20:32.549Z,94892.11
2019-04-26T05:23:23.397Z,94888.95
2019-04-26T05:26:21.836Z,94892.33
2019-04-26T05:29:03.667Z,94896.13
2019-04-26T05:31:45.902Z,94895.42
2019-04-26T05:34:19.255Z,94893.55
2019-04-26T05:37:12.209Z,94891.91
2019-04-26T05:39:55.819Z,94890.99
2019-04-26T05:42:55.753Z,94895.77
2019-04-26T05:45:34.941Z,94894.59
2019-04-26T05:48:35.923Z,94899.75
2019-04-26T05:51:42.381Z,94899.83
2019-04-26T05:54:54.379Z,94897.15
2019-04-26T05:57:58.495Z,94897.87
2019-04-26T06:00:37.813Z,94897.05
2019-04-26T06:03:29.189Z,94899.91
2019-04-26T06:06:29.344Z,94898.00
2019-04-26T06:09:30.726Z,94899.50
2019-04-26T06:12:23.354Z,94898.39
2019-04-26T06:15:18.757Z,94896.56
2019-04-26T06:18:09.445Z,94898.18
2019-04-26T06:20:46.986Z,94894.15
2019-04-26T06:23:47.372Z,94900.89
2019-04-26T06:26:41.695Z,94900.19
2019-04-26T06:29:32.668Z,94891.02
2019-04-26T06:32:21.608Z,94888.30
2019-04-26T06:35:16.121Z,94884.67
2019-04-26T06:38:07.431Z,94890.11
2019-04-26T06:41:12.031Z,94888.73
2019-04-26T06:43:55.144Z,94894.33
2019-04-26T06:46:54.937Z,94890.61
2019-04-26T06:49:38.027Z,94891.38
2019-04-26T06:52:12.666Z,94884.46
2019-04-26T06:54:57.685Z,94888.17
2019-04-26T06:57:59.388Z,94879.98
2019-04-26T07:00:49.253Z,94872.43
2019-04-26T07:03:29.565Z,94867.39
2019-04-26T07:06:04.506Z,94862.47
2019-04-26T07:08:41.551Z,94862.46
2019-04-26T07:11:26.224Z,94867.14
2019-04-26T07:14:15.967Z,94855.34
2019-04-26T07:17:00.642Z,94854.36
2019-04-26T07:20:04.038Z,94856.60
2019-04-26T07:23:02.081Z,94850.80
2019-04-26T07:25:53.192Z,94852.39
2019-04-26T07:28:30.737Z,94850.38
2019-04-26T07:31:18.707Z,94853.00
2019-04-26T07:34:09.482Z,94858.05
2019-04-26T07:36:53.221Z,94853.61
2019-04-26T07:39:46.932Z,94849.20
2019-04-26T07:42:47.382Z,94841.88
2019-04-26T07:45:25.981Z,94834.44
2019-04-26T07:48:18.580Z,94836.30
2019-04-26T07:51:24.857Z,94837.67
2019-04-26T07:54:25.294Z,94827.05
2019-04-26T07:57:41.016Z,94835.98
2019-04-26T08:00:18.741Z,94831.34
2019-04-26T08:03:13.094Z,94836.27
2019-04-26T08:05:52.096Z,94843.25
2019-04-26T08:08:23.509Z,94835.67
2019-04-26T08:11:06.924Z,94833.66
2019-04-26T08:13:38.510Z,94842.00
2019-04-26T08:16:14.698Z,94838.77
2019-04-26T08:18:48.140Z,94833.72
2019-04-26T08:21:31.513Z,94838.20
2019-04-26T08:24:08.429Z,94839.24
2019-04-26T08:26:40.089Z,94839.05
2019-04-26T08:29:12.667Z,94838.86
2019-04-26T08:31:44.551Z,94838.28
2019-04-26T08:34:21.113Z,94837.84
2019-04-26T08:37:06.671Z,94839.70
2019-04-26T08:39:45.480Z,94835.73
2019-04-26T08:42:20.060Z,94831.02
2019-04-26T08:44:58.562Z,94828.02
2019-04-26T08:47:29.745Z,94823.80
2019-04-26T08:50:01.986Z,94824.47
2019-04-26T08:52:33.574Z,94816.55
2019-04-26T08:55:06.014Z,94821.02
2019-04-26T08:57:38.189Z,94824.45
2019-04-26T09:00:32.253Z,94818.62
2019-04-26T09:03:11.646Z,94814.59
2019-04-26T09:05:57.628Z,94808.91
2019-04-26T09:08:29.218Z,94807.59
2019-04-26T09:11:00.885Z,94795.75
2019-04-26T09:13:35.128Z,94804.30
2019-04-26T09:16:06.953Z,94799.08
2019-04-26T09:18:43.216Z,94792.41
2019-04-26T09:21:06.849Z,94794.25
2019-04-26T09:23:40.144Z,94782.21
2019-04-26T09:26:25.353Z,94780.69
2019-04-26T09:29:11.781Z,94770.31
2019-04-26T09:31:44.798Z,94774.13
2019-04-26T09:34:22.116Z,94767.55
2019-04-26T09:36:50.775Z,94762.32
2019-04-26T09:39:20.651Z,94757.77
2019-04-26T09:41:49.513Z,94756.98
2019-04-26T09:44:37.686Z,94750.09
2019-04-26T09:47:26.426Z,94749.48
2019-04-26T09:50:15.418Z,94749.44
2019-04-26T09:52:44.789Z,94742.37
2019-04-26T09:55:14.073Z,94735.85
2019-04-26T09:57:42.750Z,94731.00
2019-04-26T10:00:15.329Z,94731.25
2019-04-26T10:02:44.063Z,94722.78
2019-04-26T10:05:13.594Z,94717.09
2019-04-26T10:07:42.614Z,94706.95
2019-04-26T10:10:22.371Z,94698.59
2019-04-26T10:12:44.155Z,94699.40
2019-04-26T10:15:22.615Z,94696.97
2019-04-26T10:17:52.318Z,94693.67
2019-04-26T10:20:21.039Z,94688.72
2019-04-26T10:22:50.050Z,94687.84
2019-04-26T10:25:18.806Z,94685.06
2019-04-26T10:27:47.614Z,94686.78
2019-04-26T10:30:17.670Z,94679.73
2019-04-26T10:32:46.769Z,94672.31
2019-04-26T10:35:17.654Z,94668.77
2019-04-26T10:37:48.083Z,94668.47
2019-04-26T10:40:16.584Z,94665.92
2019-04-26T10:42:45.297Z,94667.78
2019-04-26T10:45:16.178Z,94664.78
2019-04-26T10:47:44.780Z,94662.98
2019-04-26T10:50:14.297Z,94650.95
2019-04-26T10:53:02.609Z,94654.74
2019-04-26T10:55:41.989Z,94648.86
2019-04-26T10:58:31.905Z,94645.40
2019-04-26T11:01:06.702Z,94646.55
2019-04-26T11:03:35.375Z,94642.97
2019-04-26T11:06:04.051Z,94642.77
2019-04-26T11:08:32.736Z,94632.92
2019-04-26T11:11:01.428Z,94631.52
2019-04-26T11:13:30.089Z,94624.97
2019-04-26T11:16:02.495Z,94622.03
2019-04-26T11:18:29.157Z,94628.81
2019-04-26T11:20:57.857Z,94623.45
2019-04-26T11:23:26.517Z,94614.92
2019-04-26T11:25:57.965Z,94618.33
2019-04-26T11:28:25.621Z,94619.67
2019-04-26T11:30:57.317Z,94611.81
2019-04-26T11:33:24.669Z,94615.20
2019-04-26T11:35:53.356Z,94613.30
2019-04-26T11:38:22.150Z,94608.53
2019-04-26T11:41:05.142Z,94615.97
2019-04-26T11:43:21.289Z,94611.16
2019-04-26T11:45:50.546Z,94604.00
2019-04-26T11:48:19.545Z,94604.59
2019-04-26T11:50:51.822Z,94600.61
2019-04-26T11:53:18.686Z,94598.88
2019-04-26T11:55:47.357Z,94600.52
2019-04-26T11:58:17.803Z,94596.63
2019-04-26T12:00:50.710Z,94594.81
2019-04-26T12:03:21.164Z,94589.81
2019-04-26T12:05:51.349Z,94586.85
2019-04-26T12:08:21.605Z,94580.61
2019-04-26T12:10:50.258Z,94575.86
2019-04-26T12:13:21.269Z,94568.70
2019-04-26T12:15:50.263Z,94569.20
2019-04-26T12:18:19.012Z,94560.73
2019-04-26T12:20:47.732Z,94563.14
2019-04-26T12:23:20.912Z,94560.37
2019-04-26T12:25:48.295Z,94560.91
2019-04-26T12:28:17.333Z,94558.75
2019-04-26T12:30:47.130Z,94547.22
2019-04-26T12:33:15.829Z,94547.73
2019-04-26T12:35:44.496Z,94537.96
2019-04-26T12:38:13.179Z,94495.38
2019-04-26T12:40:42.310Z,94535.56
2019-04-26T12:43:12.237Z,94529.42
2019-04-26T12:45:47.463Z,94528.84
2019-04-26T12:48:17.303Z,94535.05
2019-04-26T12:50:45.971Z,94521.39
2019-04-26T12:53:14.652Z,94512.63
2019-04-26T12:55:43.313Z,94512.84
2019-04-26T12:58:15.103Z,94506.88
2019-04-26T13:00:53.166Z,94507.81
2019-04-26T13:03:20.101Z,94510.53
2019-04-26T13:05:43.375Z,94500.13
2019-04-26T13:08:13.114Z,94505.26
2019-04-26T13:10:46.997Z,94502.53
2019-04-26T13:13:17.263Z,94500.94
2019-04-26T13:16:07.226Z,94499.12
2019-04-26T13:18:35.941Z,94495.83
2019-04-26T13:21:05.265Z,94497.80
2019-04-26T13:23:33.935Z,94499.09
2019-04-26T13:26:02.704Z,94496.22
2019-04-26T13:28:31.399Z,94492.28
2019-04-26T13:31:02.254Z,94485.12
2019-04-26T13:33:30.524Z,94479.73
2019-04-26T13:36:03.207Z,94476.77
2019-04-26T13:38:29.654Z,94472.67
2019-04-26T13:40:59.531Z,94474.31
2019-04-26T13:43:28.874Z,94472.21
2019-04-26T13:46:01.926Z,94474.34
2019-04-26T13:48:32.242Z,94469.63
2019-04-26T13:51:08.658Z,94471.64
2019-04-26T13:53:37.331Z,94461.56
2019-04-26T13:56:06.004Z,94463.30
2019-04-26T13:58:34.695Z,94459.77
2019-04-26T14:01:05.377Z,94454.71
2019-04-26T14:03:34.048Z,94458.48
2019-04-26T14:06:02.768Z,94454.02
2019-04-26T14:08:31.473Z,94454.19
2019-04-26T14:11:00.143Z,94446.75
2019-04-26T14:13:28.939Z,94452.48
2019-04-26T14:15:57.712Z,94455.85
2019-04-26T14:18:26.583Z,94446.69
2019-04-26T14:20:59.020Z,94442.70
2019-04-26T14:23:27.212Z,94437.08
2019-04-26T14:25:57.460Z,94446.83
2019-04-26T14:28:26.245Z,94449.73
2019-04-26T14:30:54.945Z,94444.98
2019-04-26T14:33:27.057Z,94453.69
2019-04-26T14:35:54.019Z,94430.51
2019-04-26T14:38:27.862Z,94444.88
2019-04-26T14:41:03.719Z,94442.83
2019-04-26T14:43:23.614Z,94438.89
2019-04-26T14:45:55.944Z,94441.62
2019-04-26T14:48:35.325Z,94442.86
2019-04-26T14:50:53.392Z,94440.17
2019-04-26T14:53:22.328Z,94440.30
2019-04-26T14:55:51.231Z,94438.05
2019-04-26T14:58:23.873Z,94438.30
2019-04-26T15:01:08.540Z,94429.74
2019-04-26T15:03:38.799Z,94423.91
2019-04-26T15:06:16.762Z,94427.50
2019-04-26T15:08:46.811Z,94424.58
2019-04-26T15:11:14.081Z,94429.02
2019-04-26T15:13:43.724Z,94426.56
2019-04-26T15:16:14.282Z,94430.18
2019-04-26T15:18:43.172Z,94429.69
2019-04-26T15:21:12.899Z,94427.09
2019-04-26T15:23:41.703Z,94432.13
2019-04-26T15:26:10.365Z,94422.62
2019-04-26T15:28:39.034Z,94429.73
2019-04-26T15:31:07.731Z,94432.82
2019-04-26T15:33:36.416Z,94439.03
2019-04-26T15:36:10.251Z,94432.38
2019-04-26T15:38:41.352Z,94433.70
2019-04-26T15:41:17.502Z,94435.62
2019-04-26T15:43:51.911Z,94432.85
2019-04-26T15:46:35.052Z,94429.59
2019-04-26T15:49:14.336Z,94432.83
2019-04-26T15:51:43.055Z,94425.68
2019-04-26T15:54:11.745Z,94420.16
2019-04-26T15:56:40.427Z,94422.80
2019-04-26T15:59:09.095Z,94425.04
2019-04-26T16:01:45.346Z,94423.41
2019-04-26T16:04:08.172Z,94416.52
2019-04-26T16:06:37.314Z,94419.87
2019-04-26T16:09:09.453Z,94422.36
2019-04-26T16:11:38.130Z,94417.67
2019-04-26T16:14:06.916Z,94419.77
2019-04-26T16:16:35.586Z,94417.39
2019-04-26T16:19:04.376Z,94414.36
2019-04-26T16:21:33.062Z,94417.34
2019-04-26T16:24:02.793Z,94414.39
2019-04-26T16:26:32.938Z,94413.08
2019-04-26T16:29:06.185Z,94415.58
2019-04-26T16:31:42.077Z,94411.20
2019-04-26T16:34:23.405Z,94413.83
2019-04-26T16:36:52.636Z,94411.50
2019-04-26T16:39:23.835Z,94409.69
2019-04-26T16:41:52.641Z,94417.54
2019-04-26T16:47:01.054Z,94408.55
2019-04-26T16:49:23.457Z,94414.53
2019-04-26T16:52:01.538Z,94411.30
2019-04-26T16:54:26.539Z,94411.28
2019-04-26T16:56:53.033Z,94408.73
2019-04-26T16:59:24.171Z,94413.87
2019-04-26T17:00:32.073Z,94408.33
2019-04-26T17:01:53.600Z,94411.55
2019-04-26T17:04:28.690Z,94416.92
2019-04-26T17:07:01.725Z,94417.22
2019-04-26T17:09:29.681Z,94411.17
2019-04-26T17:11:57.291Z,94417.48
2019-04-26T17:14:26.004Z,94416.30
2019-04-26T17:16:54.737Z,94421.50
2019-04-26T17:19:23.524Z,94414.18
2019-04-26T17:22:14.135Z,94415.36
2019-04-26T17:24:46.354Z,94420.75
2019-04-26T17:27:15.899Z,94416.47
2019-04-26T17:29:44.591Z,94423.55
2019-04-26T17:32:17.182Z,94425.12
2019-04-26T17:34:43.773Z,94422.29
2019-04-26T17:37:17.055Z,94426.66
2019-04-26T17:39:42.936Z,94423.36
2019-04-26T17:42:11.683Z,94433.89
2019-04-26T17:44:41.235Z,94431.59
2019-04-26T17:47:10.660Z,94437.72
2019-04-26T17:49:42.329Z,94446.05
2019-04-26T17:52:11.551Z,94445.04
2019-04-26T17:54:47.475Z,94452.72
2019-04-26T17:57:14.435Z,94453.65
2019-04-26T17:59:47.705Z,94457.32
2019-04-26T18:02:24.188Z,94461.84
2019-04-26T18:04:43.134Z,94460.72
2019-04-26T18:07:36.104Z,94469.38
2019-04-26T18:09:46.493Z,94469.12
2019-04-26T18:12:13.036Z,94478.44
2019-04-26T18:14:41.790Z,94481.38
2019-04-26T18:17:36.451Z,94485.91
2019-04-26T18:20:08.005Z,94491.81
2019-04-26T18:22:47.560Z,94486.37
2019-04-26T18:25:16.324Z,94485.89
2019-04-26T18:27:45.019Z,94489.67
2019-04-26T18:30:14.444Z,94495.66
2019-04-26T18:32:47.780Z,94499.34
2019-04-26T18:35:16.859Z,94499.23
2019-04-26T18:37:44.036Z,94504.78
2019-04-26T18:40:13.282Z,94507.92
2019-04-26T18:42:43.352Z,94504.87
2019-04-26T18:45:13.897Z,94508.97
2019-04-26T18:47:43.856Z,94506.92
2019-04-26T18:50:15.295Z,94506.10
2019-04-26T18:52:56.485Z,94509.89
2019-04-26T18:55:30.104Z,94505.74
2019-04-26T18:58:01.780Z,94512.27
2019-04-26T19:00:29.281Z,94507.29
2019-04-26T19:03:00.010Z,94512.35
2019-04-26T19:05:30.227Z,94515.67
2019-04-26T19:07:58.774Z,94521.56
2019-04-26T19:10:29.228Z,94517.70
2019-04-26T19:13:00.203Z,94500.50
2019-04-26T19:15:40.236Z,94526.61
2019-04-26T19:18:12.175Z,94523.57
2019-04-26T19:20:48.667Z,94522.19
2019-04-26T19:23:17.332Z,94521.36
2019-04-26T19:25:46.016Z,94521.24
2019-04-26T19:28:14.909Z,94516.97
2019-04-26T19:30:49.119Z,94495.84
2019-04-26T19:33:16.758Z,94518.43
2019-04-26T19:35:47.438Z,94522.83
2019-04-26T19:38:14.940Z,94511.88
2019-04-26T19:40:47.650Z,94522.38
2019-04-26T19:43:13.969Z,94520.27
2019-04-26T19:46:01.452Z,94520.01
2019-04-26T19:48:49.555Z,94526.44
2019-04-26T19:51:23.694Z,94521.53
2019-04-26T19:53:58.211Z,94518.16
2019-04-26T19:56:28.471Z,94517.88
2019-04-26T19:58:58.611Z,94519.80
2019-04-26T20:01:28.092Z,94518.28
2019-04-26T20:03:56.818Z,94509.41
2019-04-26T20:06:26.891Z,94513.89
2019-04-26T20:08:55.861Z,94511.64
2019-04-26T20:11:24.616Z,94515.19
2019-04-26T20:13:55.188Z,94513.20
2019-04-26T20:16:25.815Z,94511.63
2019-04-26T20:18:54.358Z,94511.63
2019-04-26T20:21:26.145Z,94505.41
2019-04-26T20:23:54.844Z,94502.75
2019-04-26T20:26:23.524Z,94502.75
2019-04-26T20:28:52.207Z,94504.02
2019-04-26T20:31:22.439Z,94499.49
2019-04-26T20:33:51.122Z,94502.84
2019-04-26T20:36:21.549Z,94506.16
2019-04-26T20:38:52.082Z,94507.15
2019-04-26T20:41:22.015Z,94509.40
2019-04-26T20:44:04.310Z,94514.31
2019-04-26T20:46:24.776Z,94510.86
2019-04-26T20:48:52.062Z,94509.81
2019-04-26T20:51:22.541Z,94507.82
2019-04-26T20:53:51.471Z,94512.53
2019-04-26T20:56:20.141Z,94502.45
2019-04-26T20:58:48.835Z,94481.34
2019-04-26T21:01:17.514Z,94505.37
2019-04-26T21:03:46.379Z,94509.00
2019-04-26T21:06:15.065Z,94505.63
2019-04-26T21:08:43.752Z,94512.31
2019-04-26T21:11:13.767Z,94508.83
2019-04-26T21:13:42.507Z,94511.80
2019-04-26T21:16:15.258Z,94512.66
2019-04-26T21:18:44.126Z,94519.55
2019-04-26T21:21:12.256Z,94515.11
2019-04-26T21:23:42.209Z,94522.13
2019-04-26T21:26:19.440Z,94515.34
2019-04-26T21:29:06.760Z,94513.03
2019-04-26T21:31:45.658Z,94514.52
2019-04-26T21:34:27.305Z,94519.69
2019-04-26T21:37:20.498Z,94515.98
2019-04-26T21:40:03.940Z,94512.63
2019-04-26T21:42:33.387Z,94515.70
2019-04-26T21:45:03.591Z,94503.70
2019-04-26T21:47:35.137Z,94511.54
2019-04-26T21:50:04.234Z,94514.63
2019-04-26T21:52:34.305Z,94514.30
2019-04-26T21:55:04.859Z,94506.58
2019-04-26T21:57:35.027Z,94513.56
2019-04-26T22:00:07.199Z,94510.92
2019-04-26T22:02:37.473Z,94514.20
2019-04-26T22:05:08.001Z,94511.45
2019-04-26T22:07:39.503Z,94509.96
2019-04-26T22:10:15.399Z,94517.80
2019-04-26T22:12:45.089Z,94511.65
2019-04-26T22:15:35.880Z,94511.96
2019-04-26T22:18:03.740Z,94509.55
2019-04-26T22:20:36.997Z,94510.48
2019-04-26T22:23:16.345Z,94513.25
2019-04-26T22:25:45.262Z,94509.44
2019-04-26T22:28:14.134Z,94512.08
2019-04-26T22:30:42.934Z,94504.36
2019-04-26T22:33:13.184Z,94506.47
2019-04-26T22:35:43.219Z,94505.31
2019-04-26T22:38:12.137Z,94505.52
2019-04-26T22:40:40.820Z,94503.52
2019-04-26T22:43:19.927Z,94496.00
2019-04-26T22:45:53.585Z,94493.98
2019-04-26T22:48:26.810Z,94493.03
2019-04-26T22:50:58.580Z,94495.67
2019-04-26T22:53:27.491Z,94493.23
2019-04-26T22:55:57.674Z,94489.10
2019-04-26T22:58:28.801Z,94490.36
2019-04-26T23:00:58.568Z,94490.55
2019-04-26T23:03:28.339Z,94494.68
2019-04-26T23:05:57.069Z,94494.36
2019-04-26T23:08:25.733Z,94491.39
2019-04-26T23:10:56.016Z,94492.67
2019-04-26T23:13:33.769Z,94485.89
2019-04-26T23:16:14.353Z,94492.04
2019-04-26T23:18:46.227Z,94485.59
2019-04-26T23:21:25.671Z,94476.48
2019-04-26T23:23:54.374Z,94473.82
2019-04-26T23:26:23.323Z,94478.17
2019-04-26T23:28:53.501Z,94469.82
2019-04-26T23:31:23.698Z,94468.67
2019-04-26T23:33:53.893Z,94471.72
2019-04-26T23:36:24.105Z,94472.15
2019-04-26T23:38:53.275Z,94460.42
2019-04-26T23:41:23.619Z,94464.02
2019-04-26T23:43:56.452Z,94461.92
2019-04-26T23:46:25.953Z,94457.26
2019-04-26T23:48:54.837Z,94453.02
2019-04-26T23:51:23.823Z,94450.91
2019-04-26T23:53:55.005Z,94451.87
2019-04-26T23:56:25.287Z,94446.68
2019-04-26T23:58:54.156Z,94449.42
